createdAt,value
2022-12-11T00:00:33.315Z,57.85
2022-12-11T00:01:33.304Z,50.43
2022-12-11T00:02:33.361Z,55.75
2022-12-11T00:03:33.344Z,55.11
2022-12-11T00:04:33.285Z,54.46
2022-12-11T00:05:34.376Z,44.47
2022-12-11T00:06:33.270Z,54.14
2022-12-11T00:07:33.261Z,52.05
2022-12-11T00:08:33.271Z,52.05
2022-12-11T00:09:33.224Z,55.59
2022-12-11T00:10:36.233Z,58.65
2022-12-11T00:11:34.231Z,43.83
2022-12-11T00:12:33.224Z,50.76
2022-12-11T00:13:33.220Z,41.89
2022-12-11T00:14:33.159Z,40.12
2022-12-11T00:15:33.175Z,49.63
2022-12-11T00:16:33.194Z,41.41
2022-12-11T00:17:33.200Z,54.14
2022-12-11T00:18:33.123Z,54.62
2022-12-11T00:19:33.137Z,49.63
2022-12-11T00:20:33.137Z,54.30
2022-12-11T00:21:33.084Z,47.70
2022-12-11T00:22:33.087Z,41.89
2022-12-11T00:23:33.086Z,41.57
2022-12-11T00:24:33.104Z,56.56
2022-12-11T00:25:33.053Z,44.96
2022-12-11T00:26:33.040Z,50.92
2022-12-11T00:27:33.053Z,50.92
2022-12-11T00:28:33.153Z,42.86
2022-12-11T00:29:33.789Z,43.83
2022-12-11T00:30:33.740Z,55.91
2022-12-11T00:31:33.059Z,49.79
2022-12-11T00:32:37.449Z,47.86
2022-12-11T00:33:33.980Z,48.82
2022-12-11T00:34:32.964Z,53.33
2022-12-11T00:35:33.005Z,52.37
2022-12-11T00:36:33.621Z,55.59
2022-12-11T00:37:32.983Z,57.52
2022-12-11T00:38:32.939Z,48.50
2022-12-11T00:39:32.933Z,43.18
2022-12-11T00:40:32.925Z,59.30
2022-12-11T00:41:32.901Z,45.76
2022-12-11T00:42:33.952Z,41.73
2022-12-11T00:43:32.869Z,43.67
2022-12-11T00:44:32.917Z,58.81
2022-12-11T00:45:32.859Z,52.37
2022-12-11T00:46:32.856Z,43.51
2022-12-11T00:47:32.837Z,44.15
2022-12-11T00:48:32.821Z,42.54
2022-12-11T00:49:32.822Z,44.15
2022-12-11T00:50:32.795Z,55.59
2022-12-11T00:51:32.817Z,48.82
2022-12-11T00:52:32.793Z,43.34
2022-12-11T00:53:32.794Z,42.54
2022-12-11T00:54:32.773Z,57.20
2022-12-11T00:55:32.745Z,53.66
2022-12-11T00:56:33.741Z,52.69
2022-12-11T00:57:32.721Z,45.44
2022-12-11T00:58:32.765Z,45.12
2022-12-11T00:59:32.723Z,55.11
2022-12-11T01:00:32.763Z,48.34
2022-12-11T01:01:32.727Z,53.17
2022-12-11T01:02:32.750Z,44.47
2022-12-11T01:03:32.690Z,45.92
2022-12-11T01:04:32.709Z,45.92
2022-12-11T01:05:32.681Z,40.44
2022-12-11T01:06:32.663Z,41.57
2022-12-11T01:07:32.658Z,51.88
2022-12-11T01:08:38.276Z,40.93
2022-12-11T01:09:34.602Z,41.41
2022-12-11T01:10:32.633Z,51.88
2022-12-11T01:11:32.701Z,42.70
2022-12-11T01:12:32.569Z,48.18
2022-12-11T01:13:32.565Z,41.41
2022-12-11T01:14:32.582Z,56.56
2022-12-11T01:15:32.530Z,49.47
2022-12-11T01:16:32.580Z,51.40
2022-12-11T01:17:32.514Z,47.37
2022-12-11T01:18:32.515Z,54.79
2022-12-11T01:19:32.510Z,43.02
2022-12-11T01:20:32.490Z,56.72
2022-12-11T01:21:32.549Z,45.28
2022-12-11T01:22:32.498Z,54.95
2022-12-11T01:23:32.458Z,40.93
2022-12-11T01:24:33.298Z,42.06
2022-12-11T01:25:32.543Z,42.86
2022-12-11T01:26:32.670Z,45.12
2022-12-11T01:27:32.413Z,52.05
2022-12-11T01:28:32.418Z,42.06
2022-12-11T01:29:32.387Z,55.75
2022-12-11T01:30:32.414Z,55.91
2022-12-11T01:31:32.426Z,48.82
2022-12-11T01:32:32.364Z,42.70
2022-12-11T01:33:32.372Z,54.14
2022-12-11T01:34:32.331Z,42.86
2022-12-11T01:35:32.430Z,42.38
2022-12-11T01:36:32.388Z,46.89
2022-12-11T01:37:32.356Z,48.98
2022-12-11T01:38:32.355Z,41.73
2022-12-11T01:39:32.339Z,45.92
2022-12-11T01:40:32.399Z,55.75
2022-12-11T01:41:32.317Z,45.44
2022-12-11T01:42:32.256Z,40.93
2022-12-11T01:43:32.276Z,41.41
2022-12-11T01:44:32.260Z,44.96
2022-12-11T01:45:32.236Z,42.06
2022-12-11T01:46:32.262Z,54.46
2022-12-11T01:47:33.152Z,40.44
2022-12-11T01:48:32.189Z,45.92
2022-12-11T01:49:32.282Z,57.36
2022-12-11T01:50:32.185Z,51.24
2022-12-11T01:51:32.151Z,48.98
2022-12-11T01:52:32.129Z,43.18
2022-12-11T01:53:32.174Z,45.76
2022-12-11T01:54:32.146Z,43.02
2022-12-11T01:55:32.256Z,43.67
2022-12-11T01:56:32.109Z,49.31
2022-12-11T01:57:32.101Z,45.60
2022-12-11T01:58:32.081Z,56.40
2022-12-11T01:59:32.134Z,46.73
2022-12-11T02:00:32.134Z,50.60
2022-12-11T02:01:32.148Z,42.38
2022-12-11T02:02:32.094Z,42.22
2022-12-11T02:03:32.050Z,39.80
2022-12-11T02:04:32.028Z,42.54
2022-12-11T02:05:32.044Z,43.02
2022-12-11T02:06:32.025Z,40.12
2022-12-11T02:07:32.124Z,48.50
2022-12-11T02:08:32.084Z,44.47
2022-12-11T02:09:31.962Z,40.93
2022-12-11T02:10:31.974Z,41.89
2022-12-11T02:11:31.969Z,47.21
2022-12-11T02:12:32.004Z,42.06
2022-12-11T02:13:32.028Z,44.47
2022-12-11T02:14:32.126Z,48.02
2022-12-11T02:15:31.917Z,47.70
2022-12-11T02:16:31.923Z,46.73
2022-12-11T02:17:31.909Z,43.34
2022-12-11T02:18:31.906Z,50.43
2022-12-11T02:19:31.873Z,47.21
2022-12-11T02:20:31.863Z,41.89
2022-12-11T02:21:31.889Z,43.51
2022-12-11T02:22:32.751Z,42.70
2022-12-11T02:23:31.830Z,42.22
2022-12-11T02:24:31.845Z,42.22
2022-12-11T02:25:31.995Z,44.63
2022-12-11T02:27:04.210Z,42.06
2022-12-11T02:27:31.789Z,39.96
2022-12-11T02:28:31.766Z,40.12
2022-12-11T02:29:31.770Z,40.12
2022-12-11T02:30:31.846Z,41.41
2022-12-11T02:31:31.856Z,41.09
2022-12-11T02:32:31.802Z,40.61
2022-12-11T02:33:31.867Z,47.37
2022-12-11T02:34:31.750Z,45.44
2022-12-11T02:35:31.701Z,40.44
2022-12-11T02:36:31.711Z,41.73
2022-12-11T02:37:31.707Z,41.57
2022-12-11T02:38:31.650Z,39.80
2022-12-11T02:39:31.670Z,39.64
2022-12-11T02:40:31.642Z,45.76
2022-12-11T02:41:31.630Z,40.61
2022-12-11T02:42:31.769Z,45.60
2022-12-11T02:43:31.642Z,40.93
2022-12-11T02:44:31.627Z,42.70
2022-12-11T02:45:31.737Z,41.09
2022-12-11T02:46:31.791Z,40.12
2022-12-11T02:47:31.647Z,40.77
2022-12-11T02:48:31.654Z,40.61
2022-12-11T02:49:31.582Z,41.89
2022-12-11T02:50:31.571Z,42.70
2022-12-11T02:51:31.575Z,53.17
2022-12-11T02:52:31.583Z,43.99
2022-12-11T02:53:31.503Z,41.41
2022-12-11T02:54:31.512Z,43.99
2022-12-11T02:55:31.502Z,40.93
2022-12-11T02:56:31.484Z,40.44
2022-12-11T02:57:31.685Z,47.05
2022-12-11T02:58:31.495Z,40.12
2022-12-11T02:59:31.445Z,40.61
2022-12-11T03:00:32.245Z,40.44
2022-12-11T03:01:31.475Z,42.38
2022-12-11T03:02:31.514Z,43.02
2022-12-11T03:03:31.408Z,43.18
2022-12-11T03:04:31.404Z,44.63
2022-12-11T03:05:31.432Z,44.63
2022-12-11T03:06:31.385Z,42.06
2022-12-11T03:07:31.380Z,46.08
2022-12-11T03:08:31.401Z,41.25
2022-12-11T03:09:31.337Z,41.73
2022-12-11T03:10:31.376Z,47.37
2022-12-11T03:11:31.366Z,48.66
2022-12-11T03:12:31.346Z,41.09
2022-12-11T03:13:31.328Z,42.86
2022-12-11T03:14:31.288Z,43.34
2022-12-11T03:15:31.301Z,42.38
2022-12-11T03:16:31.303Z,50.76
2022-12-11T03:17:31.450Z,42.86
2022-12-11T03:18:31.242Z,42.70
2022-12-11T03:19:31.270Z,43.67
2022-12-11T03:20:31.281Z,45.44
2022-12-11T03:21:31.237Z,42.86
2022-12-11T03:22:31.240Z,53.66
2022-12-11T03:23:31.218Z,45.76
2022-12-11T03:24:31.203Z,42.06
2022-12-11T03:25:31.188Z,46.89
2022-12-11T03:26:31.172Z,47.53
2022-12-11T03:27:31.205Z,45.92
2022-12-11T03:28:31.184Z,47.21
2022-12-11T03:29:31.233Z,47.70
2022-12-11T03:30:31.230Z,43.51
2022-12-11T03:31:31.128Z,48.50
2022-12-11T03:32:31.136Z,43.99
2022-12-11T03:33:31.112Z,44.15
2022-12-11T03:34:31.154Z,46.25
2022-12-11T03:35:31.129Z,45.76
2022-12-11T03:36:31.175Z,44.63
2022-12-11T03:37:31.057Z,43.67
2022-12-11T03:38:31.082Z,52.05
2022-12-11T03:39:31.057Z,42.70
2022-12-11T03:40:32.099Z,41.73
2022-12-11T03:41:31.725Z,42.70
2022-12-11T03:42:31.168Z,43.67
2022-12-11T03:43:31.754Z,42.70
2022-12-11T03:44:31.169Z,52.85
2022-12-11T03:45:31.761Z,48.02
2022-12-11T03:46:31.171Z,46.41
2022-12-11T03:47:31.099Z,43.34
2022-12-11T03:48:30.938Z,45.92
2022-12-11T03:49:30.971Z,44.47
2022-12-11T03:50:30.931Z,43.51
2022-12-11T03:51:30.926Z,43.34
2022-12-11T03:52:30.895Z,42.38
2022-12-11T03:53:30.890Z,42.86
2022-12-11T03:54:30.918Z,54.79
2022-12-11T03:55:30.890Z,44.96
2022-12-11T03:56:30.922Z,46.41
2022-12-11T03:57:30.920Z,42.86
2022-12-11T03:58:31.775Z,49.31
2022-12-11T03:59:30.899Z,44.47
2022-12-11T04:00:30.814Z,42.70
2022-12-11T04:01:30.909Z,42.86
2022-12-11T04:02:30.879Z,43.99
2022-12-11T04:03:30.835Z,43.51
2022-12-11T04:04:30.852Z,43.67
2022-12-11T04:05:30.915Z,52.85
2022-12-11T04:06:30.777Z,47.53
2022-12-11T04:07:30.770Z,44.79
2022-12-11T04:08:30.808Z,48.82
2022-12-11T04:09:30.756Z,45.12
2022-12-11T04:10:30.794Z,44.15
2022-12-11T04:11:30.787Z,43.18
2022-12-11T04:12:30.720Z,43.99
2022-12-11T04:13:30.730Z,52.69
2022-12-11T04:14:30.674Z,46.25
2022-12-11T04:15:30.665Z,50.60
2022-12-11T04:16:30.678Z,43.67
2022-12-11T04:17:30.683Z,60.91
2022-12-11T04:18:30.654Z,58.01
2022-12-11T04:19:30.744Z,55.91
2022-12-11T04:20:30.622Z,46.08
2022-12-11T04:21:33.926Z,54.79
2022-12-11T04:22:31.706Z,44.15
2022-12-11T04:23:31.595Z,43.67
2022-12-11T04:24:30.667Z,44.96
2022-12-11T04:25:30.607Z,60.42
2022-12-11T04:26:30.661Z,51.24
2022-12-11T04:27:31.363Z,45.28
2022-12-11T04:28:30.559Z,61.87
2022-12-11T04:29:30.607Z,51.88
2022-12-11T04:30:34.111Z,45.28
2022-12-11T04:31:31.673Z,54.62
2022-12-11T04:32:30.580Z,52.85
2022-12-11T04:33:30.545Z,60.26
2022-12-11T04:34:30.507Z,51.56
2022-12-11T04:35:30.636Z,46.73
2022-12-11T04:36:30.447Z,44.47
2022-12-11T04:37:31.575Z,47.70
2022-12-11T04:38:30.440Z,54.79
2022-12-11T04:39:30.445Z,46.41
2022-12-11T04:40:30.404Z,49.15
2022-12-11T04:41:30.439Z,58.01
2022-12-11T04:42:30.423Z,52.53
2022-12-11T04:43:30.400Z,48.50
2022-12-11T04:44:30.400Z,42.70
2022-12-11T04:45:30.360Z,45.76
2022-12-11T04:46:30.376Z,44.63
2022-12-11T04:47:31.072Z,60.10
2022-12-11T04:48:30.351Z,54.62
2022-12-11T04:49:30.392Z,43.99
2022-12-11T04:50:30.332Z,48.98
2022-12-11T04:51:30.449Z,46.25
2022-12-11T04:52:30.284Z,45.28
2022-12-11T04:53:30.293Z,44.63
2022-12-11T04:54:30.276Z,43.02
2022-12-11T04:55:30.243Z,52.53
2022-12-11T04:56:30.265Z,46.73
2022-12-11T04:57:30.240Z,60.10
2022-12-11T04:58:30.393Z,44.96
2022-12-11T04:59:30.209Z,42.70
2022-12-11T05:00:30.208Z,55.27
2022-12-11T05:01:30.468Z,51.24
2022-12-11T05:02:30.227Z,54.46
2022-12-11T05:03:30.328Z,44.79
2022-12-11T05:04:31.229Z,46.89
2022-12-11T05:05:30.154Z,58.01
2022-12-11T05:06:30.188Z,53.33
2022-12-11T05:07:30.116Z,45.60
2022-12-11T05:08:30.120Z,62.52
2022-12-11T05:09:30.106Z,47.37
2022-12-11T05:10:30.112Z,45.12
2022-12-11T05:11:30.097Z,61.87
2022-12-11T05:12:30.101Z,45.60
2022-12-11T05:13:30.104Z,46.73
2022-12-11T05:14:30.145Z,46.25
2022-12-11T05:15:30.125Z,43.18
2022-12-11T05:16:30.183Z,44.47
2022-12-11T05:17:30.018Z,43.51
2022-12-11T05:18:30.121Z,44.63
2022-12-11T05:19:30.073Z,57.69
2022-12-11T05:20:31.074Z,58.01
2022-12-11T05:21:34.763Z,60.26
2022-12-11T05:22:31.995Z,58.17
2022-12-11T05:23:30.978Z,46.57
2022-12-11T05:24:29.994Z,54.79
2022-12-11T05:25:30.016Z,48.98
2022-12-11T05:26:29.934Z,58.97
2022-12-11T05:27:29.924Z,57.52
2022-12-11T05:28:30.016Z,45.60
2022-12-11T05:29:29.933Z,46.08
2022-12-11T05:30:29.959Z,45.92
2022-12-11T05:31:29.909Z,59.46
2022-12-11T05:32:29.874Z,44.31
2022-12-11T05:33:29.867Z,50.92
2022-12-11T05:34:29.855Z,58.65
2022-12-11T05:35:29.882Z,56.24
2022-12-11T05:36:29.886Z,46.57
2022-12-11T05:37:29.847Z,49.47
2022-12-11T05:38:29.816Z,52.05
2022-12-11T05:39:29.787Z,43.51
2022-12-11T05:40:29.787Z,43.18
2022-12-11T05:41:29.821Z,57.69
2022-12-11T05:42:29.763Z,49.95
2022-12-11T05:43:29.776Z,43.34
2022-12-11T05:44:29.737Z,48.66
2022-12-11T05:45:29.736Z,43.99
2022-12-11T05:46:29.858Z,44.31
2022-12-11T05:47:29.724Z,53.33
2022-12-11T05:48:29.716Z,53.33
2022-12-11T05:49:31.110Z,48.34
2022-12-11T05:50:30.676Z,53.82
2022-12-11T05:51:29.729Z,50.43
2022-12-11T05:52:29.774Z,43.18
2022-12-11T05:53:29.659Z,51.08
2022-12-11T05:54:29.711Z,55.59
2022-12-11T05:55:29.767Z,54.95
2022-12-11T05:56:29.626Z,44.15
2022-12-11T05:57:29.612Z,53.33
2022-12-11T05:58:29.617Z,55.11
2022-12-11T05:59:29.675Z,42.38
2022-12-11T06:00:35.707Z,42.54
2022-12-11T06:01:31.183Z,43.51
2022-12-11T06:02:29.734Z,42.06
2022-12-11T06:03:29.560Z,44.79
2022-12-11T06:04:29.556Z,41.25
2022-12-11T06:05:29.548Z,41.41
2022-12-11T06:06:29.555Z,44.96
2022-12-11T06:07:29.609Z,42.38
2022-12-11T06:08:29.518Z,42.38
2022-12-11T06:09:29.504Z,50.60
2022-12-11T06:10:29.601Z,59.78
2022-12-11T06:11:29.476Z,45.44
2022-12-11T06:12:30.488Z,46.08
2022-12-11T06:13:29.483Z,58.65
2022-12-11T06:14:30.059Z,56.07
2022-12-11T06:15:29.481Z,47.21
2022-12-11T06:16:29.585Z,59.46
2022-12-11T06:17:29.420Z,54.62
2022-12-11T06:18:29.428Z,50.92
2022-12-11T06:19:33.479Z,44.96
2022-12-11T06:20:31.368Z,61.55
2022-12-11T06:21:29.485Z,49.31
2022-12-11T06:22:29.349Z,47.21
2022-12-11T06:23:29.354Z,49.47
2022-12-11T06:24:29.318Z,43.34
2022-12-11T06:25:29.335Z,56.07
2022-12-11T06:26:29.369Z,54.79
2022-12-11T06:27:29.298Z,44.47
2022-12-11T06:28:29.428Z,56.72
2022-12-11T06:29:29.286Z,63.00
2022-12-11T06:30:38.780Z,57.20
2022-12-11T06:31:30.325Z,54.14
2022-12-11T06:32:29.240Z,58.49
2022-12-11T06:33:29.250Z,57.85
2022-12-11T06:34:29.677Z,63.16
2022-12-11T06:35:29.225Z,56.56
2022-12-11T06:36:29.223Z,55.11
2022-12-11T06:37:29.233Z,45.44
2022-12-11T06:38:29.789Z,59.46
2022-12-11T06:39:29.165Z,53.66
2022-12-11T06:40:29.221Z,45.12
2022-12-11T06:41:29.802Z,51.08
2022-12-11T06:42:29.154Z,53.17
2022-12-11T06:43:29.136Z,54.14
2022-12-11T06:44:30.122Z,44.96
2022-12-11T06:45:29.360Z,43.02
2022-12-11T06:46:29.231Z,55.11
2022-12-11T06:47:29.085Z,49.47
2022-12-11T06:48:29.199Z,54.14
2022-12-11T06:49:29.304Z,43.67
2022-12-11T06:50:29.073Z,54.95
2022-12-11T06:51:30.073Z,49.15
2022-12-11T06:52:29.069Z,60.75
2022-12-11T06:53:29.023Z,59.30
2022-12-11T06:54:29.035Z,50.43
2022-12-11T06:55:29.070Z,43.67
2022-12-11T06:56:30.074Z,51.88
2022-12-11T06:57:29.014Z,51.72
2022-12-11T06:58:29.094Z,55.11
2022-12-11T06:59:29.071Z,48.82
2022-12-11T07:00:29.628Z,44.47
2022-12-11T07:01:29.073Z,58.65
2022-12-11T07:02:29.069Z,53.82
2022-12-11T07:03:29.088Z,62.20
2022-12-11T07:04:28.978Z,55.59
2022-12-11T07:05:28.923Z,59.46
2022-12-11T07:06:28.926Z,60.75
2022-12-11T07:07:28.902Z,56.24
2022-12-11T07:08:28.922Z,53.66
2022-12-11T07:09:28.999Z,51.24
2022-12-11T07:10:28.956Z,58.49
2022-12-11T07:11:29.739Z,46.41
2022-12-11T07:12:28.872Z,56.24
2022-12-11T07:13:28.868Z,58.49
2022-12-11T07:14:28.833Z,46.73
2022-12-11T07:15:28.826Z,48.18
2022-12-11T07:16:28.862Z,59.14
2022-12-11T07:17:28.814Z,58.01
2022-12-11T07:18:28.809Z,50.11
2022-12-11T07:19:28.797Z,57.52
2022-12-11T07:20:28.853Z,44.31
2022-12-11T07:21:28.759Z,60.59
2022-12-11T07:22:28.778Z,56.07
2022-12-11T07:23:28.755Z,52.21
2022-12-11T07:24:28.706Z,45.76
2022-12-11T07:25:29.668Z,58.01
2022-12-11T07:26:28.707Z,52.53
2022-12-11T07:27:28.728Z,56.07
2022-12-11T07:28:28.709Z,55.75
2022-12-11T07:29:29.720Z,61.07
2022-12-11T07:30:28.753Z,58.33
2022-12-11T07:31:28.908Z,50.92
2022-12-11T07:32:28.788Z,47.70
2022-12-11T07:33:28.628Z,61.39
2022-12-11T07:34:28.625Z,58.97
2022-12-11T07:35:29.569Z,56.40
2022-12-11T07:36:28.607Z,43.99
2022-12-11T07:37:28.608Z,47.53
2022-12-11T07:38:28.681Z,48.18
2022-12-11T07:39:28.585Z,56.24
2022-12-11T07:40:28.689Z,57.52
2022-12-11T07:41:28.572Z,51.40
2022-12-11T07:42:28.542Z,52.37
2022-12-11T07:43:28.534Z,51.24
2022-12-11T07:44:28.751Z,60.59
2022-12-11T07:45:30.595Z,50.92
2022-12-11T07:46:28.472Z,47.05
2022-12-11T07:47:28.536Z,63.00
2022-12-11T07:48:28.497Z,59.14
2022-12-11T07:49:28.497Z,58.01
2022-12-11T07:50:28.493Z,53.33
2022-12-11T07:51:28.433Z,53.98
2022-12-11T07:52:28.538Z,53.82
2022-12-11T07:53:28.581Z,62.84
2022-12-11T07:54:28.398Z,53.66
2022-12-11T07:55:28.409Z,54.30
2022-12-11T07:56:28.396Z,54.95
2022-12-11T07:57:28.353Z,51.24
2022-12-11T07:58:28.353Z,53.82
2022-12-11T07:59:28.362Z,50.76
2022-12-11T08:00:28.333Z,55.43
2022-12-11T08:01:28.391Z,57.69
2022-12-11T08:02:31.360Z,62.36
2022-12-11T08:03:29.382Z,59.30
2022-12-11T08:04:28.346Z,53.82
2022-12-11T08:05:28.351Z,56.40
2022-12-11T08:06:28.339Z,46.73
2022-12-11T08:07:29.088Z,61.07
2022-12-11T08:08:28.284Z,47.86
2022-12-11T08:09:28.253Z,59.78
2022-12-11T08:10:28.254Z,58.65
2022-12-11T08:11:29.213Z,59.94
2022-12-11T08:12:28.387Z,50.60
2022-12-11T08:13:28.207Z,60.42
2022-12-11T08:14:28.185Z,60.26
2022-12-11T08:15:28.201Z,57.20
2022-12-11T08:16:28.337Z,51.08
2022-12-11T08:17:30.967Z,56.40
2022-12-11T08:18:29.177Z,59.94
2022-12-11T08:19:28.178Z,57.69
2022-12-11T08:20:28.166Z,61.39
2022-12-11T08:21:28.221Z,48.50
2022-12-11T08:22:28.324Z,63.00
2022-12-11T08:23:28.296Z,62.84
2022-12-11T08:24:28.081Z,62.36
2022-12-11T08:25:28.122Z,54.79
2022-12-11T08:26:28.228Z,60.75
2022-12-11T08:27:28.093Z,65.58
2022-12-11T08:28:28.161Z,60.91
2022-12-11T08:29:28.046Z,56.56
2022-12-11T08:30:28.077Z,60.42
2022-12-11T08:31:28.191Z,57.04
2022-12-11T08:32:29.015Z,59.14
2022-12-11T08:33:28.118Z,63.49
2022-12-11T08:34:28.087Z,57.69
2022-12-11T08:35:28.666Z,56.40
2022-12-11T08:36:28.007Z,58.65
2022-12-11T08:37:27.962Z,60.75
2022-12-11T08:38:27.954Z,59.94
2022-12-11T08:39:27.959Z,62.04
2022-12-11T08:40:27.935Z,62.04
2022-12-11T08:41:28.038Z,58.49
2022-12-11T08:42:28.083Z,61.23
2022-12-11T08:43:27.894Z,58.33
2022-12-11T08:44:28.022Z,57.20
2022-12-11T08:45:28.023Z,61.55
2022-12-11T08:46:27.886Z,57.20
2022-12-11T08:47:27.976Z,62.84
2022-12-11T08:48:27.931Z,64.13
2022-12-11T08:49:34.240Z,64.29
2022-12-11T08:50:30.204Z,58.81
2022-12-11T08:51:27.875Z,57.85
2022-12-11T08:52:27.833Z,63.65
2022-12-11T08:53:27.865Z,62.04
2022-12-11T08:54:27.771Z,63.97
2022-12-11T08:55:27.852Z,63.16
2022-12-11T08:56:27.773Z,60.75
2022-12-11T08:57:28.036Z,56.24
2022-12-11T08:58:27.741Z,60.75
2022-12-11T08:59:27.960Z,60.59
2022-12-11T09:00:27.706Z,56.40
2022-12-11T09:01:28.756Z,61.71
2022-12-11T09:02:29.410Z,57.85
2022-12-11T09:03:27.677Z,49.95
2022-12-11T09:04:27.663Z,56.40
2022-12-11T09:05:28.632Z,56.88
2022-12-11T09:06:27.736Z,61.87
2022-12-11T09:07:28.648Z,64.94
2022-12-11T09:08:27.713Z,64.61
2022-12-11T09:09:27.660Z,61.87
2022-12-11T09:10:27.683Z,66.06
2022-12-11T09:11:27.594Z,63.16
2022-12-11T09:12:27.662Z,64.61
2022-12-11T09:13:27.581Z,62.68
2022-12-11T09:14:27.576Z,61.71
2022-12-11T09:15:27.544Z,62.04
2022-12-11T09:16:27.598Z,60.91
2022-12-11T09:17:27.534Z,62.52
2022-12-11T09:18:27.542Z,63.81
2022-12-11T09:19:32.107Z,64.61
2022-12-11T09:20:28.520Z,67.51
2022-12-11T09:21:27.489Z,66.23
2022-12-11T09:22:27.481Z,62.84
2022-12-11T09:23:27.456Z,63.33
2022-12-11T09:24:27.461Z,65.90
2022-12-11T09:25:27.462Z,60.10
2022-12-11T09:26:27.456Z,61.87
2022-12-11T09:27:27.461Z,59.46
2022-12-11T09:28:27.414Z,65.90
2022-12-11T09:29:27.426Z,64.78
2022-12-11T09:30:27.396Z,68.64
2022-12-11T09:31:27.408Z,59.14
2022-12-11T09:32:27.412Z,64.13
2022-12-11T09:33:27.373Z,65.58
2022-12-11T09:34:29.386Z,64.29
2022-12-11T09:35:28.409Z,67.84
2022-12-11T09:36:28.350Z,68.16
2022-12-11T09:37:28.186Z,63.97
2022-12-11T09:38:28.169Z,66.39
2022-12-11T09:39:27.307Z,65.74
2022-12-11T09:40:27.289Z,65.26
2022-12-11T09:41:27.300Z,65.26
2022-12-11T09:42:27.262Z,65.58
2022-12-11T09:43:27.257Z,63.65
2022-12-11T09:44:27.262Z,67.19
2022-12-11T09:45:27.240Z,63.81
2022-12-11T09:46:32.141Z,63.65
2022-12-11T09:47:29.247Z,64.45
2022-12-11T09:48:27.198Z,67.68
2022-12-11T09:49:27.290Z,68.32
2022-12-11T09:50:27.176Z,64.61
2022-12-11T09:51:27.178Z,63.16
2022-12-11T09:52:27.193Z,65.42
2022-12-11T09:53:31.051Z,67.84
2022-12-11T09:54:28.995Z,65.58
2022-12-11T09:55:27.215Z,63.33
2022-12-11T09:56:27.271Z,57.20
2022-12-11T09:57:28.110Z,67.68
2022-12-11T09:58:27.152Z,68.00
2022-12-11T09:59:27.127Z,69.13
2022-12-11T10:00:27.103Z,68.32
2022-12-11T10:01:28.440Z,63.00
2022-12-11T10:02:27.744Z,64.13
2022-12-11T10:03:27.103Z,64.13
2022-12-11T10:04:27.026Z,62.36
2022-12-11T10:05:27.091Z,67.35
2022-12-11T10:06:27.002Z,63.97
2022-12-11T10:07:27.026Z,65.26
2022-12-11T10:08:27.057Z,67.35
2022-12-11T10:09:26.997Z,61.71
2022-12-11T10:10:27.039Z,66.06
2022-12-11T10:11:26.948Z,66.55
2022-12-11T10:12:27.150Z,66.06
2022-12-11T10:13:26.950Z,70.42
2022-12-11T10:14:26.970Z,64.78
2022-12-11T10:15:26.951Z,67.68
2022-12-11T10:16:26.916Z,68.48
2022-12-11T10:17:27.036Z,63.33
2022-12-11T10:18:27.667Z,68.48
2022-12-11T10:19:26.883Z,65.10
2022-12-11T10:20:26.868Z,66.39
2022-12-11T10:21:26.855Z,66.87
2022-12-11T10:22:26.840Z,67.03
2022-12-11T10:23:26.841Z,65.10
2022-12-11T10:25:05.735Z,67.35
2022-12-11T10:25:29.452Z,70.42
2022-12-11T10:26:26.810Z,69.29
2022-12-11T10:27:26.802Z,64.61
2022-12-11T10:28:26.824Z,70.42
2022-12-11T10:29:26.900Z,67.35
2022-12-11T10:30:30.394Z,65.90
2022-12-11T10:31:28.793Z,68.80
2022-12-11T10:32:26.746Z,68.96
2022-12-11T10:33:26.734Z,67.03
2022-12-11T10:34:26.709Z,69.77
2022-12-11T10:35:26.765Z,68.64
2022-12-11T10:36:26.732Z,65.74
2022-12-11T10:37:26.725Z,70.42
2022-12-11T10:38:26.695Z,71.06
2022-12-11T10:39:26.693Z,67.68
2022-12-11T10:40:27.678Z,70.09
2022-12-11T10:41:26.661Z,67.51
2022-12-11T10:42:26.677Z,68.16
2022-12-11T10:43:26.628Z,67.51
2022-12-11T10:44:26.638Z,67.84
2022-12-11T10:45:27.610Z,64.45
2022-12-11T10:46:27.668Z,68.48
2022-12-11T10:47:26.570Z,66.06
2022-12-11T10:48:27.502Z,66.06
2022-12-11T10:49:27.580Z,68.96
2022-12-11T10:50:26.646Z,67.84
2022-12-11T10:51:26.543Z,67.35
2022-12-11T10:52:26.581Z,64.94
2022-12-11T10:53:26.535Z,69.13
2022-12-11T10:54:26.554Z,65.58
2022-12-11T10:55:27.243Z,68.00
2022-12-11T10:56:26.524Z,65.90
2022-12-11T10:57:26.490Z,68.00
2022-12-11T10:58:26.458Z,65.10
2022-12-11T10:59:26.445Z,67.84
2022-12-11T11:00:26.450Z,67.51
2022-12-11T11:01:26.529Z,70.09
2022-12-11T11:02:26.460Z,69.13
2022-12-11T11:03:26.536Z,65.74
2022-12-11T11:04:26.391Z,64.61
2022-12-11T11:05:26.395Z,65.58
2022-12-11T11:06:26.404Z,72.19
2022-12-11T11:07:26.418Z,69.13
2022-12-11T11:08:26.393Z,64.78
2022-12-11T11:09:26.362Z,68.64
2022-12-11T11:10:26.330Z,65.58
2022-12-11T11:11:26.414Z,64.29
2022-12-11T11:12:26.364Z,67.19
2022-12-11T11:13:27.986Z,63.97
2022-12-11T11:14:26.407Z,64.61
2022-12-11T11:15:26.534Z,66.87
2022-12-11T11:16:26.409Z,71.06
2022-12-11T11:17:29.560Z,67.35
2022-12-11T11:18:27.478Z,63.49
2022-12-11T11:19:26.238Z,62.52
2022-12-11T11:20:26.243Z,66.55
2022-12-11T11:21:26.259Z,68.16
2022-12-11T11:22:26.214Z,66.71
2022-12-11T11:23:26.214Z,68.32
2022-12-11T11:24:26.243Z,63.16
2022-12-11T11:25:26.179Z,67.68
2022-12-11T11:26:43.598Z,65.90
2022-12-11T11:27:28.207Z,64.61
2022-12-11T11:28:26.139Z,67.84
2022-12-11T11:29:26.193Z,66.87
2022-12-11T11:30:26.131Z,66.87
2022-12-11T11:31:26.193Z,64.61
2022-12-11T11:32:26.216Z,66.87
2022-12-11T11:33:26.108Z,71.06
2022-12-11T11:34:26.100Z,65.74
2022-12-11T11:35:26.121Z,64.78
2022-12-11T11:36:26.072Z,70.09
2022-12-11T11:37:26.078Z,68.64
2022-12-11T11:38:26.773Z,67.03
2022-12-11T11:39:26.112Z,66.87
2022-12-11T11:40:26.036Z,68.16
2022-12-11T11:41:26.652Z,67.35
2022-12-11T11:42:26.024Z,63.33
2022-12-11T11:43:26.038Z,68.64
2022-12-11T11:44:26.022Z,66.06
2022-12-11T11:45:25.971Z,65.10
2022-12-11T11:46:26.014Z,67.68
2022-12-11T11:47:25.998Z,66.06
2022-12-11T11:48:25.940Z,70.25
2022-12-11T11:49:25.951Z,64.61
2022-12-11T11:50:25.926Z,66.06
2022-12-11T11:51:25.952Z,69.93
2022-12-11T11:52:26.964Z,66.39
2022-12-11T11:53:25.916Z,71.06
2022-12-11T11:54:25.975Z,58.65
2022-12-11T11:55:26.029Z,67.51
2022-12-11T11:56:25.907Z,66.06
2022-12-11T11:57:25.864Z,66.55
2022-12-11T11:58:25.908Z,64.61
2022-12-11T11:59:25.870Z,69.13
2022-12-11T12:00:30.316Z,68.32
2022-12-11T12:01:26.797Z,63.33
2022-12-11T12:02:25.835Z,66.23
2022-12-11T12:03:25.767Z,69.29
2022-12-11T12:04:25.961Z,67.84
2022-12-11T12:05:25.784Z,69.93
2022-12-11T12:06:26.020Z,67.84
2022-12-11T12:07:25.788Z,65.58
2022-12-11T12:08:25.782Z,66.55
2022-12-11T12:09:25.784Z,69.13
2022-12-11T12:10:25.697Z,65.42
2022-12-11T12:11:25.709Z,66.71
2022-12-11T12:12:31.058Z,70.25
2022-12-11T12:13:48.992Z,70.58
2022-12-11T12:14:53.076Z,69.13
2022-12-11T12:15:27.666Z,69.13
2022-12-11T12:16:51.504Z,67.51
2022-12-11T12:17:27.677Z,67.35
2022-12-11T12:18:25.694Z,65.42
2022-12-11T12:19:25.601Z,64.29
2022-12-11T12:20:25.603Z,67.84
2022-12-11T12:21:25.608Z,68.16
2022-12-11T12:22:25.593Z,67.35
2022-12-11T12:23:25.596Z,66.06
2022-12-11T12:24:25.561Z,68.16
2022-12-11T12:25:25.556Z,68.48
2022-12-11T12:26:25.547Z,67.84
2022-12-11T12:27:51.540Z,70.09
2022-12-11T12:28:27.534Z,72.03
2022-12-11T12:29:25.565Z,68.96
2022-12-11T12:30:26.453Z,66.55
2022-12-11T12:31:25.772Z,65.90
2022-12-11T12:32:25.640Z,68.16
2022-12-11T12:33:25.550Z,68.00
2022-12-11T12:34:25.471Z,65.42
2022-12-11T12:35:25.474Z,66.87
2022-12-11T12:36:25.499Z,68.16
2022-12-11T12:37:25.511Z,69.29
2022-12-11T12:38:25.468Z,59.62
2022-12-11T12:39:25.402Z,65.42
2022-12-11T12:40:25.485Z,65.58
2022-12-11T12:41:25.383Z,66.87
2022-12-11T12:42:25.399Z,67.35
2022-12-11T12:43:25.458Z,69.61
2022-12-11T12:44:25.447Z,69.29
2022-12-11T12:45:25.435Z,69.61
2022-12-11T12:46:25.422Z,65.74
2022-12-11T12:47:25.332Z,67.35
2022-12-11T12:48:25.428Z,69.29
2022-12-11T12:49:25.299Z,70.09
2022-12-11T12:50:25.340Z,70.90
2022-12-11T12:51:25.401Z,65.74
2022-12-11T12:52:25.335Z,67.51